createdAt,value
2023-03-15T00:03:25.597Z,100295.09
2023-03-15T00:08:28.359Z,100295.47
2023-03-15T00:13:32.136Z,100303.56
2023-03-15T00:18:36.271Z,100317.69
2023-03-15T00:23:40.644Z,100332.72
2023-03-15T00:28:47.928Z,100334.28
2023-03-15T00:33:54.732Z,100337.41
2023-03-15T00:38:58.911Z,100333.47
2023-03-15T00:44:01.847Z,100336.56
2023-03-15T00:49:07.105Z,100344.44
2023-03-15T00:54:13.885Z,100357.38
2023-03-15T00:59:16.754Z,100360.44
2023-03-15T01:04:21.065Z,100360.44
2023-03-15T01:09:23.860Z,100365.09
2023-03-15T01:14:26.674Z,100358.44
2023-03-15T01:19:30.851Z,100364.84
2023-03-15T01:24:33.687Z,100367.19
2023-03-15T01:29:36.607Z,100380.50
2023-03-15T01:34:43.196Z,100385.09
2023-03-15T01:39:46.562Z,100385.53
2023-03-15T01:44:52.300Z,100393.06
2023-03-15T01:50:02.593Z,100395.78
2023-03-15T01:55:10.133Z,100408.19
2023-03-15T02:00:20.276Z,100407.44
2023-03-15T02:05:36.895Z,100402.44
2023-03-15T02:10:44.492Z,100416.66
2023-03-15T02:15:48.729Z,100425.91
2023-03-15T02:21:09.478Z,100424.09
2023-03-15T02:26:22.025Z,100436.44
2023-03-15T02:31:26.282Z,100432.69
2023-03-15T02:36:31.960Z,100440.47
2023-03-15T02:41:40.220Z,100448.63
2023-03-15T02:46:47.034Z,100458.38
2023-03-15T02:51:49.834Z,100463.63
2023-03-15T02:56:53.324Z,100476.41
2023-03-15T03:01:57.447Z,100487.94
2023-03-15T03:07:00.663Z,100484.63
2023-03-15T03:12:13.032Z,100493.94
2023-03-15T03:17:17.380Z,100497.78
2023-03-15T03:22:24.438Z,100516.66
2023-03-15T03:27:27.293Z,100515.59
2023-03-15T03:32:32.046Z,100525.53
2023-03-15T03:37:35.821Z,100538.63
2023-03-15T03:42:47.140Z,100549.78
2023-03-15T03:47:52.833Z,100563.03
2023-03-15T03:52:56.233Z,100573.72
2023-03-15T03:58:03.507Z,100593.53
2023-03-15T04:03:27.376Z,100602.63
2023-03-15T04:08:38.314Z,100591.91
2023-03-15T04:13:42.621Z,100590.53
2023-03-15T04:18:47.769Z,100591.66
2023-03-15T04:23:50.692Z,100618.22
2023-03-15T04:29:14.501Z,100624.28
2023-03-15T04:34:38.677Z,100626.97
2023-03-15T04:39:53.370Z,100642.38
2023-03-15T04:45:19.317Z,100651.03
2023-03-15T04:50:42.045Z,100647.16
2023-03-15T04:56:10.806Z,100653.56
2023-03-15T05:01:14.780Z,100644.97
2023-03-15T05:06:32.875Z,100656.13
2023-03-15T05:11:49.182Z,100661.78
2023-03-15T05:17:10.871Z,100670.50
2023-03-15T05:22:45.620Z,100683.63
2023-03-15T05:28:07.079Z,100692.53
2023-03-15T05:33:17.983Z,100716.75
2023-03-15T05:39:03.077Z,100720.16
2023-03-15T05:44:33.554Z,100723.31
2023-03-15T05:49:57.772Z,100736.25
2023-03-15T05:55:20.402Z,100731.88
2023-03-15T06:00:33.291Z,100741.06
2023-03-15T06:05:42.770Z,100756.38
2023-03-15T06:10:52.090Z,100770.69
2023-03-15T06:15:54.906Z,100779.03
2023-03-15T06:20:58.237Z,100791.63
2023-03-15T06:26:02.494Z,100797.91
2023-03-15T06:31:09.164Z,100794.97
2023-03-15T06:36:19.175Z,100802.44
2023-03-15T06:41:23.419Z,100807.97
2023-03-15T06:46:31.986Z,100808.25
2023-03-15T06:51:35.008Z,100812.09
2023-03-15T06:56:39.223Z,100822.47
2023-03-15T07:01:42.093Z,100827.59
2023-03-15T07:06:44.854Z,100848.22
2023-03-15T07:11:49.144Z,100839.19
2023-03-15T07:16:51.888Z,100855.44
2023-03-15T07:21:54.588Z,100909.19
2023-03-15T07:26:58.725Z,100912.66
2023-03-15T07:32:01.623Z,100938.16
2023-03-15T07:37:04.627Z,100904.75
2023-03-15T07:42:09.582Z,100902.22
2023-03-15T07:47:17.390Z,100901.88
2023-03-15T07:52:21.353Z,100911.44
2023-03-15T07:57:27.684Z,100912.59
2023-03-15T08:02:31.464Z,100918.25
2023-03-15T08:07:34.170Z,100925.91
2023-03-15T08:12:39.936Z,100929.81
2023-03-15T08:17:43.525Z,100933.94
2023-03-15T08:22:46.547Z,100945.63
2023-03-15T08:27:51.168Z,100950.16
2023-03-15T08:32:53.981Z,100960.78
2023-03-15T08:37:57.085Z,100969.50
2023-03-15T08:43:01.222Z,100965.78
2023-03-15T08:48:04.021Z,100985.78
2023-03-15T08:53:06.739Z,100981.81
2023-03-15T08:58:12.831Z,100999.03
2023-03-15T09:03:16.616Z,100984.91
2023-03-15T09:08:21.429Z,101005.16
2023-03-15T09:13:26.909Z,101032.44
2023-03-15T09:18:29.829Z,101056.28
2023-03-15T09:23:32.548Z,101009.00
2023-03-15T09:28:36.622Z,101040.28
2023-03-15T09:33:39.458Z,101043.41
2023-03-15T09:38:43.805Z,101036.41
2023-03-15T09:44:12.692Z,101021.41
2023-03-15T09:49:21.245Z,101027.81
2023-03-15T09:54:29.257Z,101040.53
2023-03-15T09:59:35.723Z,101039.69
2023-03-15T10:04:40.631Z,101047.75
2023-03-15T10:09:44.277Z,101064.22
2023-03-15T10:15:02.822Z,101061.16
2023-03-15T10:20:12.034Z,101054.09
2023-03-15T10:25:19.397Z,101058.09
2023-03-15T10:30:25.786Z,101056.03
2023-03-15T10:35:28.669Z,101047.00
2023-03-15T10:40:43.904Z,101052.41
2023-03-15T10:46:00.116Z,101057.53
2023-03-15T10:51:06.859Z,101060.03
2023-03-15T10:56:25.814Z,101062.44
2023-03-15T11:01:34.596Z,101066.22
2023-03-15T11:06:42.800Z,101066.22
2023-03-15T11:11:54.591Z,101077.56
2023-03-15T11:17:00.856Z,101089.16
2023-03-15T11:22:04.052Z,101096.16
2023-03-15T11:27:13.883Z,101096.63
2023-03-15T11:32:21.811Z,101108.22
2023-03-15T11:37:29.284Z,101099.38
2023-03-15T11:42:36.694Z,101093.22
2023-03-15T11:47:48.464Z,101124.78
2023-03-15T11:52:52.736Z,101145.59
2023-03-15T11:57:57.865Z,101161.59
2023-03-15T12:03:35.307Z,101146.59
2023-03-15T12:08:46.252Z,101152.91
2023-03-15T12:14:05.348Z,101152.13
2023-03-15T12:19:16.192Z,101136.94
2023-03-15T12:24:24.962Z,101163.16
2023-03-15T12:29:30.098Z,101169.91
2023-03-15T12:34:46.913Z,101154.16
2023-03-15T12:39:52.474Z,101134.34
2023-03-15T12:44:55.255Z,101151.63
2023-03-15T12:50:38.215Z,101155.38
2023-03-15T12:55:41.935Z,101160.50
2023-03-15T13:00:45.798Z,101157.25
2023-03-15T13:06:03.927Z,101155.84
2023-03-15T13:11:21.256Z,101153.50
2023-03-15T13:16:35.545Z,101150.44
2023-03-15T13:21:52.452Z,101152.13
2023-03-15T13:26:59.791Z,101149.03
2023-03-15T13:32:09.850Z,101151.22
2023-03-15T13:37:17.053Z,101146.84
2023-03-15T13:42:23.866Z,101157.22
2023-03-15T13:47:27.455Z,101151.13
2023-03-15T13:52:31.586Z,101167.22
2023-03-15T13:57:34.984Z,101159.94
2023-03-15T14:02:45.586Z,101174.03
2023-03-15T14:07:51.142Z,101182.34
2023-03-15T14:12:55.327Z,101195.72
2023-03-15T14:18:02.992Z,101220.59
2023-03-15T14:23:12.345Z,101212.28
2023-03-15T14:28:17.275Z,101216.53
2023-03-15T14:33:28.447Z,101220.34
2023-03-15T14:38:37.603Z,101219.81
2023-03-15T14:43:40.388Z,101227.47
2023-03-15T14:48:43.460Z,101218.25
2023-03-15T14:53:50.003Z,101219.44
2023-03-15T14:58:54.138Z,101221.09
2023-03-15T15:03:59.742Z,101224.38
2023-03-15T15:09:06.012Z,101224.22
2023-03-15T15:14:13.865Z,101222.31
2023-03-15T15:19:16.884Z,101236.59
2023-03-15T15:24:23.298Z,101231.63
2023-03-15T15:29:25.996Z,101252.06
2023-03-15T15:34:29.192Z,101243.69
2023-03-15T15:39:33.341Z,101248.00
2023-03-15T15:44:36.196Z,101252.81
2023-03-15T15:49:41.351Z,101259.72
2023-03-15T15:54:47.735Z,101256.75
2023-03-15T15:59:50.491Z,101258.91
2023-03-15T16:04:54.897Z,101278.91
2023-03-15T16:10:00.717Z,101278.16
2023-03-15T16:15:03.736Z,101284.09
2023-03-15T16:20:09.118Z,101285.50
2023-03-15T16:25:20.249Z,101297.75
2023-03-15T16:30:24.870Z,101300.09
2023-03-15T16:35:32.386Z,101319.56
2023-03-15T16:40:42.131Z,101312.63
2023-03-15T16:45:44.895Z,101324.59
2023-03-15T16:50:48.203Z,101335.69
2023-03-15T16:55:52.358Z,101341.00
2023-03-15T17:00:55.974Z,101342.00
2023-03-15T17:05:58.804Z,101337.59
2023-03-15T17:11:02.899Z,101352.44
2023-03-15T17:16:06.590Z,101368.88
2023-03-15T17:21:12.895Z,101373.09
2023-03-15T17:26:20.385Z,101378.63
2023-03-15T17:31:25.568Z,101383.06
2023-03-15T17:36:33.893Z,101387.53
2023-03-15T17:41:42.558Z,101395.13
2023-03-15T17:46:45.381Z,101393.66
2023-03-15T17:51:48.235Z,101400.81
2023-03-15T17:56:52.492Z,101403.34
2023-03-15T18:01:55.313Z,101403.69
2023-03-15T18:06:58.061Z,101408.13
2023-03-15T18:12:02.286Z,101409.47
2023-03-15T18:17:05.278Z,101415.78
2023-03-15T18:22:08.052Z,101422.41
2023-03-15T18:27:12.877Z,101432.00
2023-03-15T18:32:15.686Z,101424.00
2023-03-15T18:37:18.551Z,101434.69
2023-03-15T18:42:22.638Z,101437.63
2023-03-15T18:47:25.481Z,101443.78
2023-03-15T18:52:28.429Z,101443.78
2023-03-15T18:57:32.590Z,101449.47
2023-03-15T19:02:35.352Z,101450.75
2023-03-15T19:07:38.599Z,101450.88
2023-03-15T19:12:44.787Z,101452.03
2023-03-15T19:17:49.386Z,101456.88
2023-03-15T19:22:53.230Z,101450.84
2023-03-15T19:27:57.966Z,101461.38
2023-03-15T19:33:01.081Z,101463.53
2023-03-15T19:38:04.097Z,101466.59
2023-03-15T19:43:10.170Z,101468.34
2023-03-15T19:48:14.774Z,101474.81
2023-03-15T19:53:19.120Z,101475.00
2023-03-15T19:58:23.459Z,101472.72
2023-03-15T20:03:26.692Z,101486.72
2023-03-15T20:08:29.438Z,101494.53
2023-03-15T20:13:33.791Z,101491.47
2023-03-15T20:18:36.518Z,101508.56
2023-03-15T20:23:39.451Z,101503.28
2023-03-15T20:28:45.106Z,101516.94
2023-03-15T20:33:50.683Z,101510.50
2023-03-15T20:38:53.770Z,101526.34
2023-03-15T20:43:58.345Z,101523.13
2023-03-15T20:49:01.159Z,101533.28
2023-03-15T20:54:07.049Z,101530.59
2023-03-15T20:59:12.121Z,101539.06
2023-03-15T21:04:16.049Z,101532.72
2023-03-15T21:09:18.929Z,101540.25
2023-03-15T21:14:23.058Z,101541.56
2023-03-15T21:19:25.820Z,101544.03
2023-03-15T21:24:31.885Z,101544.34
2023-03-15T21:29:36.226Z,101540.75
2023-03-15T21:34:39.207Z,101541.75
2023-03-15T21:39:42.015Z,101542.31
2023-03-15T21:44:46.150Z,101545.78
2023-03-15T21:49:49.045Z,101545.94
2023-03-15T21:54:51.778Z,101547.97
2023-03-15T21:59:55.926Z,101552.69
2023-03-15T22:04:58.904Z,101552.69
2023-03-15T22:10:01.733Z,101554.50
2023-03-15T22:15:07.604Z,101552.50
2023-03-15T22:20:16.379Z,101551.03
2023-03-15T22:25:19.269Z,101547.84
2023-03-15T22:30:24.071Z,101547.41
2023-03-15T22:35:27.087Z,101552.69
2023-03-15T22:40:29.895Z,101544.06
2023-03-15T22:45:34.407Z,101542.09
2023-03-15T22:50:37.110Z,101553.00
2023-03-15T22:55:39.813Z,101555.41
2023-03-15T23:00:44.974Z,101550.88
2023-03-15T23:05:48.105Z,101556.31
2023-03-15T23:10:51.306Z,101555.88
2023-03-15T23:15:55.481Z,101569.28
2023-03-15T23:21:05.401Z,101572.31
2023-03-15T23:26:08.198Z,101575.81
2023-03-15T23:31:12.302Z,101585.00
2023-03-15T23:36:15.381Z,101588.47
2023-03-15T23:41:18.173Z,101585.91
2023-03-15T23:46:36.028Z,101589.84
2023-03-15T23:51:39.061Z,101601.66
2023-03-15T23:56:41.763Z,101604.25
